Go Back  FlyerTalk Forums > Search Forums
Reload this Page >

Search Results

Search: Posts Made By: Aviatrix
Showing results 1 to 1 of 1
Search took 0.03 seconds.
Nov 25, 05, 3:23 am
Replies: 6
Views: 865
Posted By Aviatrix

Yes, I can see it's pretty nasty...: EHAM...

Yes, I can see it's pretty nasty...:

EHAM 250955Z 26030G44KT 230V290 4500 SHRA FEW010 BKN015CB BKN018 04/03 Q0977 BECMG 9999

That's a westerly wind with gusts of up to 44 knots (about 60 kph),...
Showing results 1 to 1 of 1

Forum Jump